Time;durP1;ratioP1;P1;durP2;ratioP2;P2;SDS_P1;SDS_P2;PMS_P1;PMS_P2;Temp;Humidity;BMP_temperature;BMP_pressure;BME280_temperature;BME280_humidity;BME280_pressure;Samples;Min_cycle;Max_cycle;Signal;HPM_P1;HPM_P2
2021/03/17 00:00:38;;;;;;;13.23;9.05;;;;;;;;;;5102778;28;20646;-48
2021/03/17 00:03:04;;;;;;;14.55;8.82;;;;;;;;;;5101745;28;20181;-53
2021/03/17 00:05:32;;;;;;;10.52;8.10;;;;;;;;;;5103357;28;20114;-50
2021/03/17 00:07:58;;;;;;;10.57;7.93;;;;;;;;;;5094028;28;20193;-51
2021/03/17 00:10:26;;;;;;;10.50;8.55;;;;;;;;;;5100358;28;20147;-52
2021/03/17 00:12:53;;;;;;;10.98;8.85;;;;;;;;;;5101460;28;20118;-51
2021/03/17 00:15:20;;;;;;;11.35;9.18;;;;;;;;;;5100542;28;20118;-52
2021/03/17 00:17:46;;;;;;;12.25;9.52;;;;;;;;;;5090858;28;20035;-50
2021/03/17 00:20:11;;;;;;;11.25;9.90;;;;;;;;;;5098484;28;20099;-50
2021/03/17 00:22:37;;;;;;;12.95;9.73;;;;;;;;;;5102116;28;20104;-48
2021/03/17 00:25:03;;;;;;;11.80;10.13;;;;;;;;;;5096898;28;20040;-49
2021/03/17 00:27:29;;;;;;;13.07;9.55;;;;;;;;;;5096659;28;20039;-50
2021/03/17 00:29:54;;;;;;;12.15;10.35;;;;;;;;;;5101880;28;20532;-48
2021/03/17 00:32:20;;;;;;;13.50;9.77;;;;;;;;;;5102545;28;20031;-53
2021/03/17 00:34:45;;;;;;;12.98;10.88;;;;;;;;;;5089780;28;20558;-52
2021/03/17 00:37:10;;;;;;;13.82;11.50;;;;;;;;;;5092429;28;20063;-53
2021/03/17 00:39:36;;;;;;;14.65;10.88;;;;;;;;;;5101476;28;20079;-49
2021/03/17 00:42:01;;;;;;;13.45;10.30;;;;;;;;;;5097530;28;20028;-48
2021/03/17 00:44:26;;;;;;;20.88;12.30;;;;;;;;;;5102650;28;20028;-50
2021/03/17 00:46:52;;;;;;;18.00;11.73;;;;;;;;;;5098764;28;20036;-47
2021/03/17 00:49:17;;;;;;;13.40;10.88;;;;;;;;;;5095679;28;20376;-48
2021/03/17 00:51:43;;;;;;;14.02;11.75;;;;;;;;;;5096870;28;20031;-53
2021/03/17 00:54:08;;;;;;;19.08;11.93;;;;;;;;;;5099929;28;20114;-48
2021/03/17 00:56:34;;;;;;;15.38;12.10;;;;;;;;;;5096199;28;20123;-50
2021/03/17 00:58:59;;;;;;;14.02;12.23;;;;;;;;;;5100207;28;20403;-48
2021/03/17 01:01:25;;;;;;;14.25;11.70;;;;;;;;;;5095921;28;20042;-51
2021/03/17 01:03:50;;;;;;;15.45;11.98;;;;;;;;;;5090837;28;20040;-49
2021/03/17 01:06:15;;;;;;;16.40;12.48;;;;;;;;;;5100057;28;20031;-48
2021/03/17 01:08:41;;;;;;;14.27;12.18;;;;;;;;;;5099217;28;20084;-49
2021/03/17 01:11:07;;;;;;;14.13;11.55;;;;;;;;;;5101169;28;20062;-49
2021/03/17 01:13:33;;;;;;;15.23;12.38;;;;;;;;;;5092873;28;20100;-50
2021/03/17 01:15:58;;;;;;;16.38;11.88;;;;;;;;;;5097918;28;20565;-50
2021/03/17 01:18:24;;;;;;;19.63;11.73;;;;;;;;;;5103417;28;20041;-50
2021/03/17 01:20:49;;;;;;;17.05;12.45;;;;;;;;;;5101921;28;20034;-50
2021/03/17 01:23:15;;;;;;;15.13;12.23;;;;;;;;;;5098260;28;20133;-48
2021/03/17 01:25:43;;;;;;;16.08;11.10;;;;;;;;;;5101882;28;20024;-50
2021/03/17 01:28:10;;;;;;;13.43;11.93;;;;;;;;;;5099323;28;20038;-46
2021/03/17 01:30:39;;;;;;;14.60;12.23;;;;;;;;;;5100099;28;20126;-49
2021/03/17 01:33:05;;;;;;;14.10;12.15;;;;;;;;;;5099013;28;20028;-46
2021/03/17 01:35:31;;;;;;;16.35;12.50;;;;;;;;;;5102111;28;20035;-49
2021/03/17 01:37:57;;;;;;;14.60;12.70;;;;;;;;;;5099480;28;20086;-48
2021/03/17 01:40:24;;;;;;;18.27;13.02;;;;;;;;;;5095070;28;20093;-49
2021/03/17 01:42:50;;;;;;;18.30;13.65;;;;;;;;;;5097998;28;20062;-48
2021/03/17 01:45:17;;;;;;;16.58;13.20;;;;;;;;;;5096947;28;20362;-50
2021/03/17 01:47:44;;;;;;;17.55;14.02;;;;;;;;;;5093826;28;20053;-51
2021/03/17 01:50:14;;;;;;;14.25;12.75;;;;;;;;;;5096320;28;20050;-52
2021/03/17 01:52:40;;;;;;;21.13;14.35;;;;;;;;;;5096880;28;20031;-49
2021/03/17 01:55:07;;;;;;;16.45;14.32;;;;;;;;;;5096626;28;20024;-51
2021/03/17 01:57:33;;;;;;;17.30;13.90;;;;;;;;;;5096415;28;20040;-46
2021/03/17 01:59:58;;;;;;;16.80;15.10;;;;;;;;;;5100769;28;20112;-51
2021/03/17 02:02:24;;;;;;;18.20;13.50;;;;;;;;;;5103696;28;20023;-49
2021/03/17 02:04:49;;;;;;;16.95;13.35;;;;;;;;;;5103049;28;20479;-51
2021/03/17 02:07:15;;;;;;;17.50;13.63;;;;;;;;;;5098635;28;20040;-50
2021/03/17 02:09:41;;;;;;;19.17;15.30;;;;;;;;;;5102613;28;20020;-49
2021/03/17 02:12:37;;;;;;;17.88;15.35;;;;;;;;;;5100870;28;20039;-51
2021/03/17 02:15:16;;;;;;;18.05;15.65;;;;;;;;;;5097863;28;20077;-48
2021/03/17 02:17:47;;;;;;;16.52;14.68;;;;;;;;;;5096606;28;20036;-53
2021/03/17 02:20:30;;;;;;;17.63;15.13;;;;;;;;;;5100053;28;20043;-49
2021/03/17 02:23:14;;;;;;;18.30;14.48;;;;;;;;;;5096206;28;20035;-52
2021/03/17 02:26:08;;;;;;;17.67;14.77;;;;;;;;;;5097215;28;20476;-52
2021/03/17 02:28:52;;;;;;;19.20;16.33;;;;;;;;;;5100520;28;20032;-51
2021/03/17 02:31:38;;;;;;;21.67;17.15;;;;;;;;;;5097881;28;20038;-48
2021/03/17 02:34:08;;;;;;;19.67;16.88;;;;;;;;;;5099337;28;20039;-50
2021/03/17 02:36:45;;;;;;;19.33;17.00;;;;;;;;;;5100401;28;20028;-50
2021/03/17 02:39:17;;;;;;;22.25;17.80;;;;;;;;;;5098538;28;20032;-52
2021/03/17 02:41:49;;;;;;;19.08;16.73;;;;;;;;;;5098177;28;20361;-49
2021/03/17 02:44:17;;;;;;;19.17;17.17;;;;;;;;;;5097514;28;20596;-51
2021/03/17 02:46:45;;;;;;;19.20;16.52;;;;;;;;;;5099012;28;20453;-50
2021/03/17 02:49:18;;;;;;;20.33;17.48;;;;;;;;;;5103275;28;20376;-51
2021/03/17 02:51:49;;;;;;;21.05;18.13;;;;;;;;;;5098863;28;20036;-50
2021/03/17 02:54:18;;;;;;;19.92;17.00;;;;;;;;;;5101862;28;20028;-49
2021/03/17 02:56:48;;;;;;;19.17;16.40;;;;;;;;;;5099493;28;20027;-50
2021/03/17 02:59:17;;;;;;;19.65;15.77;;;;;;;;;;5102159;28;20032;-54
2021/03/17 03:01:43;;;;;;;22.05;17.20;;;;;;;;;;5097940;28;20040;-49
2021/03/17 03:04:10;;;;;;;17.52;15.65;;;;;;;;;;5106201;28;20123;-48
2021/03/17 03:06:39;;;;;;;16.58;14.23;;;;;;;;;;5104855;28;20038;-48
2021/03/17 03:09:06;;;;;;;18.17;16.23;;;;;;;;;;5105459;28;20039;-51
2021/03/17 03:11:33;;;;;;;17.20;14.82;;;;;;;;;;5104536;28;20035;-51
2021/03/17 03:13:58;;;;;;;19.88;15.00;;;;;;;;;;5102661;28;20031;-50
2021/03/17 03:16:24;;;;;;;20.77;15.38;;;;;;;;;;5106782;28;20034;-48
2021/03/17 03:18:51;;;;;;;16.45;14.68;;;;;;;;;;5104065;28;20028;-48
2021/03/17 03:21:19;;;;;;;15.82;14.00;;;;;;;;;;5101057;28;20365;-51
2021/03/17 03:23:47;;;;;;;17.73;14.45;;;;;;;;;;5104764;28;20025;-52
2021/03/17 03:26:13;;;;;;;21.70;15.32;;;;;;;;;;5100814;28;20088;-53
2021/03/17 03:28:39;;;;;;;18.83;14.98;;;;;;;;;;5103580;28;20453;-49
2021/03/17 03:31:05;;;;;;;19.45;15.20;;;;;;;;;;5100181;28;20027;-48
2021/03/17 03:33:30;;;;;;;18.30;15.52;;;;;;;;;;5101782;28;20385;-49
2021/03/17 03:35:56;;;;;;;18.55;15.45;;;;;;;;;;5103904;28;20031;-50
2021/03/17 03:38:22;;;;;;;19.17;15.77;;;;;;;;;;5101554;28;20057;-47
2021/03/17 03:40:48;;;;;;;18.95;15.55;;;;;;;;;;5103016;28;20036;-48
2021/03/17 03:43:14;;;;;;;16.75;14.95;;;;;;;;;;5105177;28;20101;-48
2021/03/17 03:45:40;;;;;;;18.38;14.70;;;;;;;;;;5099358;28;20028;-51
2021/03/17 03:48:06;;;;;;;17.50;14.15;;;;;;;;;;5103214;28;20111;-49
2021/03/17 03:50:36;;;;;;;15.75;14.07;;;;;;;;;;5101041;27;20469;-51
2021/03/17 03:53:13;;;;;;;18.23;14.13;;;;;;;;;;5102820;28;20495;-47
2021/03/17 03:56:00;;;;;;;19.55;14.98;;;;;;;;;;5095177;28;20032;-49
2021/03/17 03:58:32;;;;;;;18.63;14.32;;;;;;;;;;5100062;28;20039;-51
2021/03/17 04:01:09;;;;;;;16.95;13.98;;;;;;;;;;5101829;28;20085;-50
2021/03/17 04:03:42;;;;;;;17.13;13.95;;;;;;;;;;5100888;28;20644;-48
2021/03/17 04:06:10;;;;;;;17.13;14.05;;;;;;;;;;5101849;28;20594;-48
2021/03/17 04:08:41;;;;;;;21.25;13.48;;;;;;;;;;5105096;28;20356;-50
2021/03/17 04:11:08;;;;;;;17.83;13.38;;;;;;;;;;5099275;28;20111;-52
2021/03/17 04:13:35;;;;;;;15.45;13.23;;;;;;;;;;5101036;28;20513;-50
2021/03/17 04:16:00;;;;;;;17.05;12.25;;;;;;;;;;5104622;28;20039;-47
2021/03/17 04:18:30;;;;;;;16.10;12.65;;;;;;;;;;5104165;28;20114;-49
2021/03/17 04:21:00;;;;;;;16.45;13.13;;;;;;;;;;5097309;28;20114;-50
2021/03/17 04:23:26;;;;;;;16.02;12.95;;;;;;;;;;5100715;28;20334;-49
2021/03/17 04:25:54;;;;;;;16.40;13.02;;;;;;;;;;5103765;28;20065;-50
2021/03/17 04:28:24;;;;;;;19.80;13.32;;;;;;;;;;5098984;28;20099;-52
2021/03/17 04:30:51;;;;;;;16.58;11.95;;;;;;;;;;5104506;28;20048;-53
2021/03/17 04:33:17;;;;;;;16.70;13.23;;;;;;;;;;5104386;28;20468;-50
2021/03/17 04:35:44;;;;;;;15.60;12.30;;;;;;;;;;5101028;28;20027;-49
2021/03/17 04:38:10;;;;;;;15.25;12.43;;;;;;;;;;5098069;28;20062;-50
2021/03/17 04:40:37;;;;;;;19.50;13.32;;;;;;;;;;5102599;28;20031;-52
2021/03/17 04:43:04;;;;;;;15.55;13.00;;;;;;;;;;5097748;28;20540;-51
2021/03/17 04:45:30;;;;;;;17.50;13.85;;;;;;;;;;5103637;28;20028;-49
2021/03/17 04:47:56;;;;;;;16.75;13.30;;;;;;;;;;5101581;28;20043;-48
2021/03/17 04:50:25;;;;;;;18.10;14.15;;;;;;;;;;5100509;28;20345;-48
2021/03/17 04:52:51;;;;;;;18.92;14.27;;;;;;;;;;5103821;28;20468;-49
2021/03/17 04:55:17;;;;;;;15.82;14.13;;;;;;;;;;5098655;28;20031;-50
2021/03/17 04:57:45;;;;;;;18.52;13.50;;;;;;;;;;5104681;28;20437;-50
2021/03/17 05:00:13;;;;;;;17.30;13.25;;;;;;;;;;5104792;28;20334;-49
2021/03/17 05:02:42;;;;;;;19.48;15.43;;;;;;;;;;5099402;28;20184;-48
2021/03/17 05:05:10;;;;;;;18.65;14.23;;;;;;;;;;5102221;28;20380;-49
2021/03/17 05:07:38;;;;;;;17.10;14.38;;;;;;;;;;5101615;28;20036;-51
2021/03/17 05:10:08;;;;;;;16.38;13.73;;;;;;;;;;5098339;28;20039;-47
2021/03/17 05:12:36;;;;;;;19.08;15.13;;;;;;;;;;5103245;28;20075;-48
2021/03/17 05:15:03;;;;;;;21.02;15.88;;;;;;;;;;5103555;28;20027;-50
2021/03/17 05:17:31;;;;;;;16.23;14.45;;;;;;;;;;5104418;28;20397;-48
2021/03/17 05:19:56;;;;;;;18.23;15.65;;;;;;;;;;5101606;28;20143;-50
2021/03/17 05:22:22;;;;;;;21.25;16.15;;;;;;;;;;5103529;28;20477;-50
2021/03/17 05:24:48;;;;;;;21.75;15.57;;;;;;;;;;5103352;28;20028;-52
2021/03/17 05:27:21;;;;;;;20.77;14.73;;;;;;;;;;5099511;28;20089;-50
2021/03/17 05:29:48;;;;;;;21.70;15.88;;;;;;;;;;5100136;28;20035;-50
2021/03/17 05:32:15;;;;;;;19.50;14.35;;;;;;;;;;5102712;28;20039;-49
2021/03/17 05:35:13;;;;;;;24.17;15.57;;;;;;;;;;5095809;28;20456;-48
2021/03/17 05:37:39;;;;;;;23.17;15.02;;;;;;;;;;5051332;28;20044;-48
2021/03/17 05:40:09;;;;;;;20.80;15.88;;;;;;;;;;5103446;28;20031;-50
2021/03/17 05:42:34;;;;;;;21.60;16.33;;;;;;;;;;5103561;28;20023;-50
2021/03/17 05:45:00;;;;;;;19.65;16.30;;;;;;;;;;5101341;28;20411;-50
2021/03/17 05:47:25;;;;;;;19.42;16.45;;;;;;;;;;5103794;28;20414;-49
2021/03/17 05:49:51;;;;;;;23.42;17.08;;;;;;;;;;5103156;28;20027;-51
2021/03/17 05:52:18;;;;;;;19.38;15.05;;;;;;;;;;5101448;28;20028;-53
2021/03/17 05:54:43;;;;;;;22.27;15.98;;;;;;;;;;5092356;28;20023;-51
2021/03/17 05:57:11;;;;;;;22.15;15.93;;;;;;;;;;5102070;28;20450;-51
2021/03/17 05:59:36;;;;;;;28.40;16.80;;;;;;;;;;5102615;28;20036;-52
2021/03/17 06:02:03;;;;;;;21.80;15.52;;;;;;;;;;5100789;28;20032;-50
2021/03/17 06:04:29;;;;;;;21.63;17.33;;;;;;;;;;5097064;28;20171;-52
2021/03/17 06:07:00;;;;;;;23.63;17.38;;;;;;;;;;5100212;28;20032;-51
2021/03/17 06:09:27;;;;;;;19.95;16.83;;;;;;;;;;5101977;28;20058;-50
2021/03/17 06:11:54;;;;;;;20.63;17.13;;;;;;;;;;5095903;28;20035;-51
2021/03/17 06:14:22;;;;;;;21.35;16.63;;;;;;;;;;5103145;28;20040;-52
2021/03/17 06:17:18;;;;;;;23.08;16.98;;;;;;;;;;5102381;28;20161;-53
2021/03/17 06:19:47;;;;;;;22.58;17.15;;;;;;;;;;5098448;28;20032;-50
2021/03/17 06:22:13;;;;;;;21.73;16.42;;;;;;;;;;5084700;28;20137;-48
2021/03/17 06:24:39;;;;;;;18.23;16.33;;;;;;;;;;5088189;28;20123;-51
2021/03/17 06:27:05;;;;;;;20.80;17.13;;;;;;;;;;5088071;28;20028;-49
2021/03/17 06:29:31;;;;;;;26.05;17.55;;;;;;;;;;5101977;28;20035;-49
2021/03/17 06:31:56;;;;;;;25.38;17.63;;;;;;;;;;5092849;28;20036;-52
2021/03/17 06:34:22;;;;;;;23.70;16.33;;;;;;;;;;5100545;28;20095;-53
2021/03/17 06:36:53;;;;;;;21.20;15.75;;;;;;;;;;5104929;28;20460;-52
2021/03/17 06:39:20;;;;;;;22.20;16.38;;;;;;;;;;5095144;28;20040;-50
2021/03/17 06:41:52;;;;;;;20.90;16.23;;;;;;;;;;5100138;28;20106;-50
2021/03/17 06:44:25;;;;;;;19.92;15.85;;;;;;;;;;5101314;28;20391;-49
2021/03/17 06:47:19;;;;;;;17.63;14.70;;;;;;;;;;5106269;28;20472;-49
2021/03/17 06:49:50;;;;;;;17.08;15.00;;;;;;;;;;5101197;28;20032;-49
2021/03/17 06:52:28;;;;;;;17.83;15.45;;;;;;;;;;5106340;28;20051;-54
2021/03/17 06:55:13;;;;;;;17.40;14.93;;;;;;;;;;5102765;28;20039;-52
2021/03/17 06:57:41;;;;;;;19.55;15.18;;;;;;;;;;5092417;28;20230;-50
2021/03/17 07:00:18;;;;;;;17.40;13.93;;;;;;;;;;5101493;28;20541;-52
2021/03/17 07:03:05;;;;;;;19.48;15.48;;;;;;;;;;5096206;28;20107;-48
2021/03/17 07:05:36;;;;;;;22.17;15.18;;;;;;;;;;5101289;28;20039;-52
2021/03/17 07:08:04;;;;;;;18.70;14.88;;;;;;;;;;5102884;28;20062;-53
2021/03/17 07:10:38;;;;;;;21.35;16.55;;;;;;;;;;5105605;28;20043;-47
2021/03/17 07:13:05;;;;;;;18.23;14.68;;;;;;;;;;5100711;28;20036;-49
2021/03/17 07:15:32;;;;;;;19.38;15.27;;;;;;;;;;5090970;28;20089;-50
2021/03/17 07:18:20;;;;;;;19.13;13.85;;;;;;;;;;5084191;28;20039;-50
2021/03/17 07:20:47;;;;;;;18.75;14.43;;;;;;;;;;5089542;28;20084;-50
2021/03/17 07:23:26;;;;;;;19.30;15.32;;;;;;;;;;5088446;28;20024;-52
2021/03/17 07:26:08;;;;;;;22.13;14.98;;;;;;;;;;5101386;28;20132;-50
2021/03/17 07:28:55;;;;;;;18.23;14.30;;;;;;;;;;5103733;28;20035;-50
2021/03/17 07:31:33;;;;;;;19.73;14.23;;;;;;;;;;5099260;28;20728;-50
2021/03/17 07:34:09;;;;;;;21.90;15.75;;;;;;;;;;5087023;28;20140;-51
2021/03/17 07:36:45;;;;;;;18.77;15.18;;;;;;;;;;5090212;28;20085;-49
2021/03/17 07:39:38;;;;;;;22.50;14.65;;;;;;;;;;5098547;28;20051;-51
2021/03/17 07:42:12;;;;;;;20.80;14.68;;;;;;;;;;5095635;28;20048;-50
2021/03/17 07:44:40;;;;;;;21.42;14.32;;;;;;;;;;5098570;28;20043;-52
2021/03/17 07:47:08;;;;;;;14.43;11.65;;;;;;;;;;5104937;28;20039;-50
2021/03/17 07:49:35;;;;;;;17.83;11.88;;;;;;;;;;5097741;28;20403;-50
2021/03/17 07:52:02;;;;;;;18.13;13.32;;;;;;;;;;5104821;28;20104;-52
2021/03/17 07:54:36;;;;;;;15.20;12.60;;;;;;;;;;5105626;28;20035;-48
2021/03/17 07:57:07;;;;;;;16.45;12.77;;;;;;;;;;5105029;28;20373;-51
2021/03/17 07:59:35;;;;;;;19.00;13.63;;;;;;;;;;5096129;28;20036;-50
2021/03/17 08:02:01;;;;;;;17.95;13.77;;;;;;;;;;5101229;28;20036;-52
2021/03/17 08:04:29;;;;;;;19.30;13.27;;;;;;;;;;5102725;28;20047;-49
2021/03/17 08:07:04;;;;;;;18.02;14.02;;;;;;;;;;5091005;28;20031;-50
2021/03/17 08:09:30;;;;;;;16.17;13.73;;;;;;;;;;5088901;28;20360;-49
2021/03/17 08:11:59;;;;;;;16.63;14.25;;;;;;;;;;5094687;28;20028;-47
2021/03/17 08:14:26;;;;;;;18.00;14.45;;;;;;;;;;5090932;28;20366;-52
2021/03/17 08:16:52;;;;;;;16.10;14.38;;;;;;;;;;5091753;28;20040;-48
2021/03/17 08:19:24;;;;;;;19.45;13.93;;;;;;;;;;5099144;28;20046;-50
2021/03/17 08:22:01;;;;;;;16.35;13.32;;;;;;;;;;5093398;28;20110;-52
2021/03/17 08:24:33;;;;;;;19.15;14.65;;;;;;;;;;5098732;28;20028;-50
2021/03/17 08:27:01;;;;;;;19.17;14.25;;;;;;;;;;5100883;28;20089;-53
2021/03/17 08:29:43;;;;;;;15.82;13.05;;;;;;;;;;5099322;28;20574;-49
2021/03/17 08:32:11;;;;;;;19.10;13.55;;;;;;;;;;5103377;28;20058;-54
2021/03/17 08:34:38;;;;;;;18.17;13.85;;;;;;;;;;5091314;28;20116;-48
2021/03/17 08:37:05;;;;;;;17.75;13.95;;;;;;;;;;5102164;28;20032;-54
2021/03/17 08:39:32;;;;;;;15.50;13.88;;;;;;;;;;5098289;28;20489;-49
2021/03/17 08:41:58;;;;;;;18.65;14.10;;;;;;;;;;5103149;28;20088;-52
2021/03/17 08:44:28;;;;;;;17.48;14.13;;;;;;;;;;5104265;28;20061;-53
2021/03/17 08:46:56;;;;;;;16.58;12.73;;;;;;;;;;5101115;28;20036;-51
2021/03/17 08:49:29;;;;;;;14.93;12.73;;;;;;;;;;5092895;28;20149;-49
2021/03/17 08:51:54;;;;;;;15.98;12.20;;;;;;;;;;5101640;28;20047;-51
2021/03/17 08:54:35;;;;;;;16.35;12.07;;;;;;;;;;5094863;28;20024;-51
2021/03/17 08:57:05;;;;;;;18.40;13.40;;;;;;;;;;5096069;28;20369;-52
2021/03/17 08:59:50;;;;;;;18.27;13.85;;;;;;;;;;5100103;28;20085;-49
2021/03/17 09:02:24;;;;;;;14.00;11.45;;;;;;;;;;5101043;28;20028;-52
2021/03/17 09:04:54;;;;;;;16.88;12.32;;;;;;;;;;5097171;28;20091;-54
2021/03/17 09:07:23;;;;;;;15.75;11.60;;;;;;;;;;5097966;28;20035;-52
2021/03/17 09:09:49;;;;;;;18.02;12.25;;;;;;;;;;5103752;28;20085;-52
2021/03/17 09:12:40;;;;;;;15.88;11.65;;;;;;;;;;5099650;28;20473;-50
2021/03/17 09:15:14;;;;;;;19.58;12.25;;;;;;;;;;5095621;28;20027;-52
2021/03/17 09:17:56;;;;;;;16.40;11.63;;;;;;;;;;5097627;28;20066;-52
2021/03/17 09:20:28;;;;;;;14.50;10.20;;;;;;;;;;5091482;28;20032;-50
2021/03/17 09:22:57;;;;;;;16.88;10.77;;;;;;;;;;5089577;28;20066;-50
2021/03/17 09:25:25;;;;;;;12.80;10.75;;;;;;;;;;5091096;28;20089;-51
2021/03/17 09:28:18;;;;;;;13.15;9.43;;;;;;;;;;5092967;28;20501;-51
2021/03/17 09:30:51;;;;;;;12.25;9.65;;;;;;;;;;5097339;28;20039;-52
2021/03/17 09:33:20;;;;;;;12.98;9.18;;;;;;;;;;5098336;28;20039;-49
2021/03/17 09:35:52;;;;;;;11.10;8.82;;;;;;;;;;5086684;28;20051;-51
2021/03/17 09:38:19;;;;;;;12.30;9.13;;;;;;;;;;5094461;28;20522;-50
2021/03/17 09:41:10;;;;;;;12.30;9.35;;;;;;;;;;5098813;28;20036;-51
2021/03/17 09:43:36;;;;;;;14.98;9.57;;;;;;;;;;5083948;28;20043;-52
2021/03/17 09:46:20;;;;;;;12.93;7.95;;;;;;;;;;5097763;28;20028;-51
2021/03/17 09:48:47;;;;;;;15.57;8.25;;;;;;;;;;5094664;28;20034;-53
2021/03/17 09:51:17;;;;;;;11.57;8.23;;;;;;;;;;5097772;28;20046;-52
2021/03/17 09:53:47;;;;;;;10.10;7.55;;;;;;;;;;5093628;28;20043;-52
2021/03/17 09:56:13;;;;;;;12.82;8.20;;;;;;;;;;5100090;28;20031;-52
2021/03/17 09:58:39;;;;;;;11.80;7.50;;;;;;;;;;5102910;28;20050;-52
2021/03/17 10:01:14;;;;;;;10.48;6.88;;;;;;;;;;5098356;28;20028;-51
2021/03/17 10:03:44;;;;;;;9.98;6.93;;;;;;;;;;5096253;28;20024;-52
2021/03/17 10:06:10;;;;;;;8.60;7.03;;;;;;;;;;5096170;28;20035;-52
2021/03/17 10:08:35;;;;;;;10.23;6.68;;;;;;;;;;5102778;28;20020;-51
2021/03/17 10:11:02;;;;;;;8.82;6.45;;;;;;;;;;5102970;28;20034;-54
2021/03/17 10:13:33;;;;;;;9.20;6.65;;;;;;;;;;5101009;28;20036;-54
2021/03/17 10:15:59;;;;;;;9.27;6.45;;;;;;;;;;5106233;28;20038;-53
2021/03/17 10:18:24;;;;;;;7.95;6.88;;;;;;;;;;5107233;28;20083;-54
2021/03/17 10:20:50;;;;;;;9.00;6.70;;;;;;;;;;5105912;28;20031;-53
2021/03/17 10:23:16;;;;;;;8.70;6.50;;;;;;;;;;5099738;28;20027;-51
2021/03/17 10:25:41;;;;;;;9.88;7.70;;;;;;;;;;5100462;28;20357;-50
2021/03/17 10:28:10;;;;;;;10.00;7.35;;;;;;;;;;5103822;28;20047;-51
2021/03/17 10:30:40;;;;;;;8.48;6.03;;;;;;;;;;5096727;28;20039;-54
2021/03/17 10:33:10;;;;;;;6.45;5.28;;;;;;;;;;5100911;28;20111;-51
2021/03/17 10:35:36;;;;;;;7.78;5.95;;;;;;;;;;5098721;28;20028;-49
2021/03/17 10:38:01;;;;;;;6.65;5.45;;;;;;;;;;5104847;28;20089;-54
2021/03/17 10:40:29;;;;;;;8.73;6.30;;;;;;;;;;5101072;28;20031;-54
2021/03/17 10:42:59;;;;;;;11.57;6.43;;;;;;;;;;5086461;28;20044;-53
2021/03/17 10:45:33;;;;;;;8.53;6.30;;;;;;;;;;5098508;28;20373;-51
2021/03/17 10:48:09;;;;;;;8.55;6.32;;;;;;;;;;5099550;28;20268;-53
2021/03/17 10:50:37;;;;;;;13.18;6.70;;;;;;;;;;5100220;28;20491;-54
2021/03/17 10:53:25;;;;;;;9.82;6.53;;;;;;;;;;5100935;28;20039;-51
2021/03/17 10:55:52;;;;;;;7.72;5.57;;;;;;;;;;5097124;28;20672;-52
2021/03/17 10:58:21;;;;;;;9.85;6.70;;;;;;;;;;5094173;28;20066;-53
2021/03/17 11:00:48;;;;;;;9.75;7.00;;;;;;;;;;5095022;28;20054;-50
2021/03/17 11:03:28;;;;;;;9.07;6.57;;;;;;;;;;5098687;28;20478;-50
2021/03/17 11:06:10;;;;;;;9.52;7.60;;;;;;;;;;5098106;28;20031;-50
2021/03/17 11:08:36;;;;;;;14.75;10.02;;;;;;;;;;5098349;28;20031;-53
2021/03/17 11:11:06;;;;;;;12.60;8.18;;;;;;;;;;5099243;28;20028;-52
2021/03/17 11:13:34;;;;;;;12.65;8.43;;;;;;;;;;5095703;28;20040;-54
2021/03/17 11:16:10;;;;;;;10.18;6.18;;;;;;;;;;5093504;28;20126;-54
2021/03/17 11:18:48;;;;;;;8.10;5.63;;;;;;;;;;5089888;28;20028;-49
2021/03/17 11:21:26;;;;;;;7.35;5.15;;;;;;;;;;5092438;28;20024;-52
2021/03/17 11:23:54;;;;;;;6.28;4.13;;;;;;;;;;5093711;28;20388;-53
2021/03/17 11:26:38;;;;;;;7.35;3.83;;;;;;;;;;5093741;28;20726;-54
2021/03/17 11:29:21;;;;;;;9.18;3.33;;;;;;;;;;5102025;28;20032;-54
2021/03/17 11:31:49;;;;;;;11.65;2.70;;;;;;;;;;5096431;28;20031;-54
2021/03/17 11:34:17;;;;;;;5.68;2.08;;;;;;;;;;5097186;28;20032;-52
2021/03/17 11:36:43;;;;;;;6.13;2.08;;;;;;;;;;5098634;28;20111;-51
2021/03/17 11:39:12;;;;;;;5.13;2.78;;;;;;;;;;5089761;28;20126;-52
2021/03/17 11:41:39;;;;;;;5.20;2.30;;;;;;;;;;5100217;28;20107;-50
2021/03/17 11:44:06;;;;;;;5.95;2.28;;;;;;;;;;5086733;28;20036;-51
2021/03/17 11:46:32;;;;;;;3.58;1.73;;;;;;;;;;5098826;27;20099;-51
2021/03/17 11:48:57;;;;;;;5.78;2.10;;;;;;;;;;5090317;28;20452;-52
2021/03/17 11:51:23;;;;;;;6.82;2.47;;;;;;;;;;5100199;28;20670;-53
2021/03/17 11:53:49;;;;;;;9.55;1.95;;;;;;;;;;5100341;27;20537;-55
2021/03/17 11:56:14;;;;;;;3.35;1.52;;;;;;;;;;5100025;28;20057;-52
2021/03/17 11:58:40;;;;;;;5.20;1.92;;;;;;;;;;5094029;28;20035;-53
2021/03/17 12:01:06;;;;;;;4.50;1.80;;;;;;;;;;5099685;28;20032;-49
2021/03/17 12:03:32;;;;;;;5.10;2.05;;;;;;;;;;5096501;28;20048;-53
2021/03/17 12:05:58;;;;;;;4.15;1.15;;;;;;;;;;5094804;28;20044;-48
2021/03/17 12:08:23;;;;;;;3.58;1.08;;;;;;;;;;5098183;28;20053;-51
2021/03/17 12:10:51;;;;;;;3.35;1.67;;;;;;;;;;5097691;28;20103;-53
2021/03/17 12:13:18;;;;;;;3.90;1.25;;;;;;;;;;5097427;28;20051;-52
2021/03/17 12:15:43;;;;;;;2.63;1.33;;;;;;;;;;5102680;28;20047;-51
2021/03/17 12:18:08;;;;;;;5.82;1.75;;;;;;;;;;5100511;28;20031;-53
2021/03/17 12:20:34;;;;;;;2.42;1.30;;;;;;;;;;5088588;28;20505;-52
2021/03/17 12:23:01;;;;;;;3.42;1.23;;;;;;;;;;5097425;28;20123;-52
2021/03/17 12:25:27;;;;;;;3.97;1.30;;;;;;;;;;5099398;28;20044;-53
2021/03/17 12:27:52;;;;;;;6.93;1.52;;;;;;;;;;5095428;28;20057;-50
2021/03/17 12:30:20;;;;;;;5.32;2.17;;;;;;;;;;5093719;28;20048;-54
2021/03/17 12:32:48;;;;;;;7.07;1.88;;;;;;;;;;5092343;28;20065;-51
2021/03/17 12:35:15;;;;;;;3.33;1.30;;;;;;;;;;5092160;28;20031;-54
2021/03/17 12:37:42;;;;;;;7.55;1.98;;;;;;;;;;5085243;28;20053;-53
2021/03/17 12:40:10;;;;;;;4.15;1.52;;;;;;;;;;5090516;28;20039;-55
2021/03/17 12:42:36;;;;;;;5.07;2.00;;;;;;;;;;5093419;28;20036;-52
2021/03/17 12:45:06;;;;;;;5.30;1.83;;;;;;;;;;5084997;28;20348;-53
2021/03/17 12:47:32;;;;;;;6.47;2.67;;;;;;;;;;5094238;28;20040;-50
2021/03/17 12:49:58;;;;;;;8.52;2.75;;;;;;;;;;5097159;28;20067;-51
2021/03/17 12:52:23;;;;;;;4.68;2.30;;;;;;;;;;5098020;28;20094;-51
2021/03/17 12:54:48;;;;;;;3.63;1.73;;;;;;;;;;5094298;28;20035;-53
2021/03/17 12:57:14;;;;;;;8.32;2.53;;;;;;;;;;5098863;28;20035;-53
2021/03/17 12:59:39;;;;;;;4.25;1.83;;;;;;;;;;5099168;28;20423;-54
2021/03/17 13:02:05;;;;;;;7.00;2.05;;;;;;;;;;5093979;28;20105;-53
2021/03/17 13:04:30;;;;;;;6.85;2.42;;;;;;;;;;5090438;28;20457;-51
2021/03/17 13:06:55;;;;;;;4.95;1.98;;;;;;;;;;5092037;28;20031;-54
2021/03/17 13:09:21;;;;;;;4.88;1.58;;;;;;;;;;5094783;28;20047;-53
2021/03/17 13:11:46;;;;;;;6.60;2.45;;;;;;;;;;5096972;28;20044;-54
2021/03/17 13:14:12;;;;;;;3.17;1.73;;;;;;;;;;5095375;28;20053;-52
2021/03/17 13:16:38;;;;;;;6.13;1.98;;;;;;;;;;5090384;28;20039;-54
2021/03/17 13:19:04;;;;;;;5.45;1.90;;;;;;;;;;5093383;28;20043;-55
2021/03/17 13:21:31;;;;;;;4.78;1.90;;;;;;;;;;5093362;28;20097;-51
2021/03/17 13:23:56;;;;;;;4.57;1.60;;;;;;;;;;5094557;28;20065;-52
2021/03/17 13:26:22;;;;;;;5.45;2.38;;;;;;;;;;5091903;28;20431;-53
2021/03/17 13:28:47;;;;;;;5.40;2.40;;;;;;;;;;5090717;28;20051;-54
2021/03/17 13:31:13;;;;;;;6.85;2.60;;;;;;;;;;5092473;28;20036;-53
2021/03/17 13:33:38;;;;;;;12.05;2.95;;;;;;;;;;5092985;28;20300;-54
2021/03/17 13:36:05;;;;;;;6.53;2.40;;;;;;;;;;5089405;28;20035;-52
2021/03/17 13:38:31;;;;;;;9.73;2.40;;;;;;;;;;5092235;28;20024;-55
2021/03/17 13:40:57;;;;;;;5.93;2.88;;;;;;;;;;5090806;28;20029;-54
2021/03/17 13:43:23;;;;;;;7.18;3.20;;;;;;;;;;5092122;28;20104;-53
2021/03/17 13:45:49;;;;;;;8.18;3.78;;;;;;;;;;5085730;28;20048;-54
2021/03/17 13:48:15;;;;;;;8.75;3.40;;;;;;;;;;5095231;28;20032;-51
2021/03/17 13:50:42;;;;;;;6.50;2.92;;;;;;;;;;5090537;28;20457;-52
2021/03/17 13:53:08;;;;;;;7.05;3.15;;;;;;;;;;5090520;28;20127;-54
2021/03/17 13:55:34;;;;;;;5.88;2.15;;;;;;;;;;5087134;28;20839;-53
2021/03/17 13:58:00;;;;;;;5.28;2.25;;;;;;;;;;5092886;28;20127;-54
2021/03/17 14:00:27;;;;;;;5.18;2.15;;;;;;;;;;5095862;28;20368;-54
2021/03/17 14:02:52;;;;;;;6.43;1.92;;;;;;;;;;5091249;28;20062;-53
2021/03/17 14:05:18;;;;;;;5.20;2.25;;;;;;;;;;5093675;28;20273;-52
2021/03/17 14:07:44;;;;;;;7.60;1.98;;;;;;;;;;5092508;28;20465;-51
2021/03/17 14:10:13;;;;;;;4.05;2.08;;;;;;;;;;5095250;28;20058;-50
2021/03/17 14:12:38;;;;;;;10.18;2.10;;;;;;;;;;5089030;28;20035;-53
2021/03/17 14:15:07;;;;;;;4.97;2.70;;;;;;;;;;5095643;28;20030;-49
2021/03/17 14:17:33;;;;;;;6.80;4.35;;;;;;;;;;5088327;28;20593;-54
2021/03/17 14:19:59;;;;;;;5.30;2.50;;;;;;;;;;5093115;28;20109;-51
2021/03/17 14:22:24;;;;;;;6.03;2.80;;;;;;;;;;5096048;28;20032;-55
2021/03/17 14:24:49;;;;;;;6.60;2.78;;;;;;;;;;5091196;28;20548;-52
2021/03/17 14:27:15;;;;;;;5.57;2.35;;;;;;;;;;5096053;28;20036;-50
2021/03/17 14:29:40;;;;;;;5.75;1.95;;;;;;;;;;5093780;28;20746;-49
2021/03/17 14:32:05;;;;;;;4.32;2.10;;;;;;;;;;5093674;28;20104;-49
2021/03/17 14:34:31;;;;;;;3.75;1.90;;;;;;;;;;5089638;28;20460;-52
2021/03/17 14:36:56;;;;;;;3.97;1.85;;;;;;;;;;5089931;28;20393;-51